createdAt,value
2023-01-25T00:00:15.703Z,4.03
2023-01-25T00:03:38.814Z,4.05
2023-01-25T00:06:41.368Z,4.05
2023-01-25T00:09:44.526Z,4.02
2023-01-25T00:12:47.631Z,3.98
2023-01-25T00:15:50.931Z,3.97
2023-01-25T00:18:53.461Z,3.98
2023-01-25T00:21:56.549Z,3.95
2023-01-25T00:24:59.155Z,3.93
2023-01-25T00:28:02.328Z,3.93
2023-01-25T00:31:07.374Z,3.92
2023-01-25T00:34:25.801Z,3.90
2023-01-25T00:37:38.980Z,3.88
2023-01-25T00:40:41.993Z,3.87
2023-01-25T00:43:44.546Z,3.89
2023-01-25T00:46:48.296Z,3.94
2023-01-25T00:49:50.989Z,3.93
2023-01-25T00:52:54.095Z,3.88
2023-01-25T00:55:57.777Z,3.83
2023-01-25T00:59:00.927Z,3.80
2023-01-25T01:02:04.517Z,3.80
2023-01-25T01:05:08.450Z,3.81
2023-01-25T01:08:11.711Z,3.79
2023-01-25T01:11:14.854Z,3.77
2023-01-25T01:14:17.476Z,3.75
2023-01-25T01:17:20.623Z,3.73
2023-01-25T01:20:23.480Z,3.72
2023-01-25T01:23:31.746Z,3.71
2023-01-25T01:26:34.451Z,3.73
2023-01-25T01:29:37.777Z,3.76
2023-01-25T01:32:40.607Z,3.67
2023-01-25T01:35:46.801Z,3.64
2023-01-25T01:38:50.330Z,3.59
2023-01-25T01:41:53.480Z,3.55
2023-01-25T01:44:56.271Z,3.55
2023-01-25T01:47:59.410Z,3.55
2023-01-25T01:51:24.898Z,3.52
2023-01-25T01:54:36.402Z,3.51
2023-01-25T01:57:44.960Z,3.51
2023-01-25T02:00:48.341Z,3.55
2023-01-25T02:03:51.905Z,3.53
2023-01-25T02:07:03.440Z,3.53
2023-01-25T02:10:09.632Z,3.51
2023-01-25T02:13:13.087Z,3.52
2023-01-25T02:16:18.864Z,3.50
2023-01-25T02:19:48.136Z,3.45
2023-01-25T02:23:01.760Z,3.43
2023-01-25T02:26:07.054Z,3.38
2023-01-25T02:29:10.827Z,3.36
2023-01-25T02:32:15.169Z,3.31
2023-01-25T02:35:23.912Z,3.32
2023-01-25T02:38:35.683Z,3.30
2023-01-25T02:41:41.100Z,3.30
2023-01-25T02:44:44.803Z,3.30
2023-01-25T02:47:48.727Z,3.29
2023-01-25T02:50:51.935Z,3.28
2023-01-25T02:53:55.023Z,3.24
2023-01-25T02:56:58.088Z,3.19
2023-01-25T03:00:01.198Z,3.18
2023-01-25T03:03:04.534Z,3.15
2023-01-25T03:06:08.112Z,3.32
2023-01-25T03:09:12.202Z,3.30
2023-01-25T03:12:15.372Z,3.21
2023-01-25T03:15:18.705Z,3.17
2023-01-25T03:18:22.380Z,3.09
2023-01-25T03:21:25.329Z,3.05
2023-01-25T03:24:28.532Z,2.99
2023-01-25T03:27:31.893Z,2.97
2023-01-25T03:30:36.115Z,2.96
2023-01-25T03:33:39.184Z,2.99
2023-01-25T03:36:43.191Z,3.02
2023-01-25T03:39:46.036Z,3.08
2023-01-25T03:42:48.998Z,3.10
2023-01-25T03:45:57.844Z,3.29
2023-01-25T03:49:00.740Z,3.22
2023-01-25T03:52:04.499Z,3.23
2023-01-25T03:55:08.523Z,3.19
2023-01-25T03:58:12.312Z,3.18
2023-01-25T04:01:15.814Z,3.16
2023-01-25T04:04:19.016Z,3.11
2023-01-25T04:07:21.766Z,3.07
2023-01-25T04:10:24.902Z,3.04
2023-01-25T04:13:27.959Z,3.02
2023-01-25T04:16:31.946Z,2.94
2023-01-25T04:19:35.977Z,2.85
2023-01-25T04:22:39.257Z,2.78
2023-01-25T04:25:42.544Z,2.83
2023-01-25T04:28:46.090Z,2.89
2023-01-25T04:31:49.504Z,3.01
2023-01-25T04:34:52.746Z,3.05
2023-01-25T04:37:58.450Z,2.94
2023-01-25T04:41:01.767Z,2.90
2023-01-25T04:44:04.352Z,2.82
2023-01-25T04:47:07.607Z,2.76
2023-01-25T04:50:11.162Z,2.86
2023-01-25T04:53:14.263Z,2.90
2023-01-25T04:56:17.098Z,2.91
2023-01-25T04:59:20.404Z,2.88
2023-01-25T05:02:23.471Z,2.89
2023-01-25T05:05:26.731Z,2.96
2023-01-25T05:08:29.679Z,2.88
2023-01-25T05:11:34.655Z,2.89
2023-01-25T05:14:38.907Z,2.89
2023-01-25T05:17:42.369Z,2.93
2023-01-25T05:20:45.773Z,2.98
2023-01-25T05:23:48.896Z,2.95
2023-01-25T05:27:05.626Z,3.05
2023-01-25T05:30:10.603Z,3.09
2023-01-25T05:33:13.425Z,3.07
2023-01-25T05:36:16.607Z,3.05
2023-01-25T05:39:19.242Z,3.07
2023-01-25T05:42:23.113Z,3.09
2023-01-25T05:45:26.416Z,3.11
2023-01-25T05:48:30.502Z,3.13
2023-01-25T05:51:33.832Z,3.14
2023-01-25T05:54:37.507Z,3.15
2023-01-25T05:57:40.525Z,3.15
2023-01-25T06:00:43.752Z,3.17
2023-01-25T06:03:49.337Z,3.17
2023-01-25T06:06:53.081Z,3.14
2023-01-25T06:09:56.403Z,3.29
2023-01-25T06:13:00.001Z,3.22
2023-01-25T06:16:03.274Z,3.16
2023-01-25T06:19:13.532Z,3.12
2023-01-25T06:22:16.809Z,3.15
2023-01-25T06:25:19.672Z,3.19
2023-01-25T06:28:22.579Z,3.19
2023-01-25T06:31:25.807Z,3.19
2023-01-25T06:34:29.092Z,3.17
2023-01-25T06:37:33.052Z,3.11
2023-01-25T06:40:35.820Z,3.21
2023-01-25T06:43:39.369Z,3.12
2023-01-25T06:46:42.099Z,3.18
2023-01-25T06:49:44.763Z,3.11
2023-01-25T06:52:57.061Z,3.20
2023-01-25T06:56:00.954Z,3.27
2023-01-25T06:59:04.808Z,3.22
2023-01-25T07:02:07.848Z,3.15
2023-01-25T07:05:11.463Z,3.13
2023-01-25T07:08:14.402Z,3.25
2023-01-25T07:11:19.138Z,3.37
2023-01-25T07:14:22.182Z,3.53
2023-01-25T07:17:25.042Z,3.50
2023-01-25T07:20:27.853Z,3.63
2023-01-25T07:23:32.632Z,3.56
2023-01-25T07:26:35.514Z,3.64
2023-01-25T07:29:38.348Z,3.82
2023-01-25T07:32:41.112Z,4.02
2023-01-25T07:35:44.010Z,4.21
2023-01-25T07:38:47.692Z,4.37
2023-01-25T07:41:50.710Z,4.51
2023-01-25T07:44:53.874Z,4.55
2023-01-25T07:48:04.259Z,4.56
2023-01-25T07:51:12.952Z,4.64
2023-01-25T07:54:15.823Z,4.82
2023-01-25T07:57:20.378Z,4.85
2023-01-25T08:00:24.849Z,4.85
2023-01-25T08:03:28.205Z,4.94
2023-01-25T08:06:35.927Z,5.02
2023-01-25T08:09:39.813Z,4.97
2023-01-25T08:12:46.380Z,4.96
2023-01-25T08:15:56.284Z,4.99
2023-01-25T08:19:00.885Z,5.06
2023-01-25T08:22:04.271Z,4.95
2023-01-25T08:25:07.708Z,5.17
2023-01-25T08:28:11.098Z,5.27
2023-01-25T08:31:19.622Z,5.34
2023-01-25T08:34:23.091Z,5.56
2023-01-25T08:37:29.603Z,5.93
2023-01-25T08:40:33.777Z,6.34
2023-01-25T08:43:38.700Z,6.46
2023-01-25T08:46:41.921Z,6.48
2023-01-25T08:49:44.733Z,6.63
2023-01-25T08:52:47.861Z,6.40
2023-01-25T08:55:50.523Z,6.35
2023-01-25T08:58:54.025Z,6.15
2023-01-25T09:01:56.580Z,6.07
2023-01-25T09:04:59.712Z,5.88
2023-01-25T09:08:02.855Z,5.87
2023-01-25T09:11:08.358Z,5.83
2023-01-25T09:14:10.928Z,5.78
2023-01-25T09:17:14.045Z,5.59
2023-01-25T09:20:17.243Z,5.52
2023-01-25T09:23:22.914Z,5.44
2023-01-25T09:26:25.666Z,5.43
2023-01-25T09:29:28.854Z,5.32
2023-01-25T09:32:31.517Z,5.24
2023-01-25T09:35:35.684Z,5.17
2023-01-25T09:38:41.126Z,5.12
2023-01-25T09:42:15.687Z,5.03
2023-01-25T09:45:34.730Z,5.04
2023-01-25T09:48:53.908Z,5.11
2023-01-25T09:52:08.164Z,5.06
2023-01-25T09:55:15.009Z,5.09
2023-01-25T09:58:22.153Z,5.04
2023-01-25T10:01:46.901Z,5.06
2023-01-25T10:04:54.277Z,4.98
2023-01-25T10:08:16.412Z,5.25
2023-01-25T10:11:26.951Z,5.16
2023-01-25T10:14:35.619Z,5.16
2023-01-25T10:17:40.952Z,5.31
2023-01-25T10:20:56.476Z,5.45
2023-01-25T10:24:14.161Z,5.51
2023-01-25T10:27:22.871Z,5.53
2023-01-25T10:30:41.711Z,5.65
2023-01-25T10:33:47.179Z,5.78
2023-01-25T10:37:14.810Z,5.69
2023-01-25T10:40:26.977Z,5.58
2023-01-25T10:43:30.210Z,5.70
2023-01-25T10:46:33.673Z,5.66
2023-01-25T10:49:47.911Z,5.59
2023-01-25T10:52:58.648Z,5.64
2023-01-25T10:56:19.376Z,5.66
2023-01-25T10:59:27.306Z,5.68
2023-01-25T11:02:36.336Z,5.65
2023-01-25T11:05:41.859Z,5.74
2023-01-25T11:08:44.786Z,5.78
2023-01-25T11:12:02.337Z,5.65
2023-01-25T11:15:24.787Z,5.59
2023-01-25T11:18:36.009Z,5.56
2023-01-25T11:21:59.953Z,5.61
2023-01-25T11:25:28.040Z,5.70
2023-01-25T11:28:30.902Z,5.77
2023-01-25T11:31:35.167Z,5.84
2023-01-25T11:34:38.108Z,5.89
2023-01-25T11:38:02.544Z,5.88
2023-01-25T11:41:25.175Z,5.82
2023-01-25T11:45:05.310Z,5.91
2023-01-25T11:48:47.859Z,5.88
2023-01-25T11:52:00.025Z,5.91
2023-01-25T11:55:18.118Z,5.88
2023-01-25T11:58:40.498Z,6.04
2023-01-25T12:02:36.062Z,5.93
2023-01-25T12:06:50.953Z,5.89
2023-01-25T12:10:09.372Z,5.90
2023-01-25T12:13:36.629Z,5.82
2023-01-25T12:17:07.687Z,6.01
2023-01-25T12:20:31.516Z,5.84
2023-01-25T12:23:57.747Z,5.84
2023-01-25T12:27:29.652Z,5.75
2023-01-25T12:30:55.042Z,5.80
2023-01-25T12:34:05.037Z,5.86
2023-01-25T12:37:24.714Z,5.93
2023-01-25T12:40:30.195Z,5.91
2023-01-25T12:43:45.606Z,5.73
2023-01-25T12:47:05.409Z,5.73
2023-01-25T12:50:47.483Z,5.94
2023-01-25T12:53:53.261Z,5.81
2023-01-25T12:57:02.531Z,5.70
2023-01-25T13:00:45.884Z,5.66
2023-01-25T13:04:11.065Z,5.69
2023-01-25T13:07:25.468Z,5.89
2023-01-25T13:10:33.384Z,5.82
2023-01-25T13:13:38.955Z,5.96
2023-01-25T13:17:18.453Z,5.94
2023-01-25T13:21:00.177Z,5.84
2023-01-25T13:24:16.845Z,5.84
2023-01-25T13:27:26.535Z,5.94
2023-01-25T13:30:34.682Z,6.04
2023-01-25T13:33:40.182Z,5.99
2023-01-25T13:37:05.985Z,5.94
2023-01-25T13:40:35.513Z,6.00
2023-01-25T13:43:46.405Z,6.16
2023-01-25T13:46:49.464Z,6.27
2023-01-25T13:50:06.419Z,6.10
2023-01-25T13:53:17.813Z,6.05
2023-01-25T13:56:47.935Z,6.01
2023-01-25T14:00:11.190Z,5.96
2023-01-25T14:03:37.430Z,5.89
2023-01-25T14:06:41.516Z,5.86
2023-01-25T14:09:46.384Z,5.89
2023-01-25T14:12:51.076Z,5.87
2023-01-25T14:15:59.871Z,6.05
2023-01-25T14:19:22.602Z,5.99
2023-01-25T14:22:28.152Z,5.92
2023-01-25T14:25:33.386Z,5.92
2023-01-25T14:28:36.416Z,5.85
2023-01-25T14:31:40.271Z,5.74
2023-01-25T14:34:45.607Z,5.71
2023-01-25T14:37:48.645Z,5.64
2023-01-25T14:40:58.423Z,5.57
2023-01-25T14:44:10.642Z,5.58
2023-01-25T14:47:23.458Z,5.50
2023-01-25T14:50:37.906Z,5.41
2023-01-25T14:53:45.688Z,5.39
2023-01-25T14:56:51.837Z,5.35
2023-01-25T14:59:56.246Z,5.31
2023-01-25T15:03:05.734Z,5.28
2023-01-25T15:06:08.930Z,5.24
2023-01-25T15:10:01.195Z,5.28
2023-01-25T15:13:14.233Z,5.24
2023-01-25T15:16:18.873Z,5.23
2023-01-25T15:19:30.061Z,5.23
2023-01-25T15:22:35.036Z,5.17
2023-01-25T15:25:49.961Z,5.12
2023-01-25T15:28:57.292Z,5.09
2023-01-25T15:32:02.054Z,5.06
2023-01-25T15:35:21.851Z,5.04
2023-01-25T15:38:25.689Z,5.05
2023-01-25T15:41:28.721Z,5.06
2023-01-25T15:44:33.336Z,4.99
2023-01-25T15:47:37.413Z,5.00
2023-01-25T15:50:41.361Z,4.96
2023-01-25T15:53:49.033Z,4.93
2023-01-25T15:56:56.129Z,4.92
2023-01-25T16:00:01.844Z,4.86
2023-01-25T16:03:07.871Z,4.86
2023-01-25T16:06:34.142Z,4.84
2023-01-25T16:09:36.704Z,4.80
2023-01-25T16:12:39.823Z,4.75
2023-01-25T16:15:42.539Z,4.76
2023-01-25T16:18:46.218Z,4.75
2023-01-25T16:21:49.657Z,4.69
2023-01-25T16:24:53.083Z,4.66
2023-01-25T16:27:55.723Z,4.61
2023-01-25T16:30:59.117Z,4.63
2023-01-25T16:34:01.949Z,4.66
2023-01-25T16:37:05.015Z,4.63
2023-01-25T16:40:26.148Z,4.62
2023-01-25T16:43:42.094Z,4.62
2023-01-25T16:46:45.410Z,4.57
2023-01-25T16:49:48.451Z,4.59
2023-01-25T16:52:51.747Z,4.57
2023-01-25T16:55:54.869Z,4.52
2023-01-25T16:59:01.383Z,4.50
2023-01-25T17:02:04.637Z,4.56
2023-01-25T17:05:09.305Z,4.55
2023-01-25T17:08:12.537Z,4.53
2023-01-25T17:11:15.977Z,4.49
2023-01-25T17:14:20.593Z,4.52
2023-01-25T17:17:24.100Z,4.54
2023-01-25T17:20:27.293Z,4.52
2023-01-25T17:23:32.166Z,4.51
2023-01-25T17:26:35.661Z,4.52
2023-01-25T17:29:38.311Z,4.51
2023-01-25T17:32:41.522Z,4.51
2023-01-25T17:35:44.226Z,4.53
2023-01-25T17:38:47.887Z,4.50
2023-01-25T17:41:51.474Z,4.47
2023-01-25T17:44:54.634Z,4.44
2023-01-25T17:47:57.317Z,4.50
2023-01-25T17:51:02.123Z,4.51
2023-01-25T17:54:05.806Z,4.51
2023-01-25T17:57:10.504Z,4.50
2023-01-25T18:00:14.087Z,4.52
2023-01-25T18:03:16.917Z,4.50
2023-01-25T18:06:24.569Z,4.48
2023-01-25T18:09:27.593Z,4.46
2023-01-25T18:12:30.458Z,4.48
2023-01-25T18:15:33.821Z,4.51
2023-01-25T18:18:37.381Z,4.49
2023-01-25T18:21:42.039Z,4.53
2023-01-25T18:24:45.969Z,4.47
2023-01-25T18:27:49.237Z,4.42
2023-01-25T18:30:57.391Z,4.41
2023-01-25T18:34:00.518Z,4.43
2023-01-25T18:37:17.829Z,4.42
2023-01-25T18:40:20.729Z,4.42
2023-01-25T18:43:23.731Z,4.44
2023-01-25T18:46:27.927Z,4.42
2023-01-25T18:49:30.849Z,4.40
2023-01-25T18:52:35.254Z,4.40
2023-01-25T18:55:38.492Z,4.37
2023-01-25T18:58:42.174Z,4.38
2023-01-25T19:01:45.140Z,4.36
2023-01-25T19:04:48.403Z,4.37
2023-01-25T19:07:52.615Z,4.36
2023-01-25T19:11:02.005Z,4.43
2023-01-25T19:14:05.808Z,4.42
2023-01-25T19:17:11.469Z,4.45
2023-01-25T19:20:14.398Z,4.33
2023-01-25T19:23:17.218Z,4.19
2023-01-25T19:26:22.104Z,4.21
2023-01-25T19:29:25.005Z,4.22
2023-01-25T19:32:29.455Z,4.19
2023-01-25T19:35:32.320Z,4.18
2023-01-25T19:38:39.017Z,4.20
2023-01-25T19:41:41.972Z,4.25
2023-01-25T19:44:44.879Z,4.27
2023-01-25T19:47:47.739Z,4.31
2023-01-25T19:50:50.690Z,4.32
2023-01-25T19:54:05.582Z,4.30
2023-01-25T19:57:08.527Z,4.31
2023-01-25T20:00:12.009Z,4.32
2023-01-25T20:03:16.670Z,4.36
2023-01-25T20:06:21.158Z,4.40
2023-01-25T20:09:28.567Z,4.45
2023-01-25T20:12:31.565Z,4.47
2023-01-25T20:15:34.508Z,4.43
2023-01-25T20:18:37.689Z,4.42
2023-01-25T20:21:40.924Z,4.37
2023-01-25T20:24:43.790Z,4.33
2023-01-25T20:27:46.713Z,4.29
2023-01-25T20:30:49.620Z,4.26
2023-01-25T20:33:55.274Z,4.20
2023-01-25T20:37:00.324Z,4.17
2023-01-25T20:40:03.734Z,4.19
2023-01-25T20:43:06.613Z,4.13
2023-01-25T20:46:09.436Z,4.13
2023-01-25T20:49:18.086Z,4.10
2023-01-25T20:52:20.917Z,4.09
2023-01-25T20:55:23.750Z,4.11
2023-01-25T20:58:27.660Z,4.13
2023-01-25T21:01:38.804Z,4.17
2023-01-25T21:04:42.075Z,4.18
2023-01-25T21:07:45.119Z,4.16
2023-01-25T21:10:56.654Z,4.15
2023-01-25T21:13:59.687Z,4.15
2023-01-25T21:17:02.581Z,4.15
2023-01-25T21:20:07.273Z,4.12
2023-01-25T21:23:10.411Z,4.19
2023-01-25T21:26:15.718Z,4.33
2023-01-25T21:29:21.122Z,4.41
2023-01-25T21:32:25.567Z,4.23
2023-01-25T21:35:29.570Z,4.30
2023-01-25T21:38:32.756Z,4.24
2023-01-25T21:41:35.663Z,4.20
2023-01-25T21:44:57.252Z,4.18
2023-01-25T21:48:00.240Z,4.19
2023-01-25T21:51:21.552Z,4.20
2023-01-25T21:54:30.820Z,4.21
2023-01-25T21:57:33.860Z,4.25
2023-01-25T22:00:37.207Z,4.27
2023-01-25T22:03:40.360Z,4.30
2023-01-25T22:06:43.471Z,4.32
2023-01-25T22:09:49.084Z,4.31
2023-01-25T22:12:51.712Z,4.36
2023-01-25T22:15:58.880Z,4.36
2023-01-25T22:19:01.496Z,4.34
2023-01-25T22:22:04.616Z,4.35
2023-01-25T22:25:07.375Z,4.33
2023-01-25T22:28:14.417Z,4.31
2023-01-25T22:31:19.252Z,4.32
2023-01-25T22:34:22.581Z,4.31
2023-01-25T22:37:25.213Z,4.26
2023-01-25T22:40:28.519Z,4.21
2023-01-25T22:43:32.790Z,4.18
2023-01-25T22:46:37.143Z,4.21
2023-01-25T22:49:39.902Z,4.20
2023-01-25T22:52:43.001Z,4.18
2023-01-25T22:55:45.579Z,4.19
2023-01-25T22:58:49.405Z,4.17
2023-01-25T23:01:52.041Z,4.15
2023-01-25T23:04:55.471Z,4.13
2023-01-25T23:07:59.268Z,4.11
2023-01-25T23:11:13.831Z,4.12
2023-01-25T23:14:35.291Z,4.10
2023-01-25T23:18:01.053Z,4.13
2023-01-25T23:21:04.894Z,4.10
2023-01-25T23:24:09.288Z,4.13
2023-01-25T23:27:12.724Z,4.20
2023-01-25T23:30:16.752Z,4.17
2023-01-25T23:33:19.305Z,4.12
2023-01-25T23:36:27.228Z,4.07
2023-01-25T23:39:30.103Z,4.08
2023-01-25T23:42:33.202Z,4.09
2023-01-25T23:45:35.779Z,4.11
2023-01-25T23:48:38.949Z,4.09
2023-01-25T23:51:41.809Z,4.10
2023-01-25T23:54:44.985Z,4.07
2023-01-25T23:57:47.946Z,4.13
